sensor_id;sensor_type;location;lat;lon;timestamp;temperature;humidity
14006;DHT22;7078;51.542;7.314;2023-09-12T00:01:22;19.90;99.90
14006;DHT22;7078;51.542;7.314;2023-09-12T00:03:47;19.90;99.90
14006;DHT22;7078;51.542;7.314;2023-09-12T00:06:13;19.80;99.90
14006;DHT22;7078;51.542;7.314;2023-09-12T00:08:38;19.80;99.90
14006;DHT22;7078;51.542;7.314;2023-09-12T00:11:09;19.70;99.90
14006;DHT22;7078;51.542;7.314;2023-09-12T00:13:40;19.80;99.90
14006;DHT22;7078;51.542;7.314;2023-09-12T00:16:07;19.80;99.90
14006;DHT22;7078;51.542;7.314;2023-09-12T00:18:35;19.80;99.90
14006;DHT22;7078;51.542;7.314;2023-09-12T00:21:00;19.70;99.90
14006;DHT22;7078;51.542;7.314;2023-09-12T00:23:26;19.70;99.90
14006;DHT22;7078;51.542;7.314;2023-09-12T00:25:52;19.70;99.90
14006;DHT22;7078;51.542;7.314;2023-09-12T00:28:19;19.70;99.90
14006;DHT22;7078;51.542;7.314;2023-09-12T00:30:44;19.60;99.90
14006;DHT22;7078;51.542;7.314;2023-09-12T00:33:10;19.60;99.90
14006;DHT22;7078;51.542;7.314;2023-09-12T00:35:35;19.50;99.90
14006;DHT22;7078;51.542;7.314;2023-09-12T00:38:01;19.60;99.90
14006;DHT22;7078;51.542;7.314;2023-09-12T00:40:27;19.60;99.90
14006;DHT22;7078;51.542;7.314;2023-09-12T00:42:52;19.50;99.90
14006;DHT22;7078;51.542;7.314;2023-09-12T00:45:18;19.60;99.90
14006;DHT22;7078;51.542;7.314;2023-09-12T00:47:44;19.50;99.90
14006;DHT22;7078;51.542;7.314;2023-09-12T00:50:10;19.50;99.90
14006;DHT22;7078;51.542;7.314;2023-09-12T00:52:36;19.40;99.90
14006;DHT22;7078;51.542;7.314;2023-09-12T00:55:03;19.40;99.90
14006;DHT22;7078;51.542;7.314;2023-09-12T00:57:30;19.40;99.90
14006;DHT22;7078;51.542;7.314;2023-09-12T00:59:57;19.40;99.90
14006;DHT22;7078;51.542;7.314;2023-09-12T01:02:24;19.40;99.90
14006;DHT22;7078;51.542;7.314;2023-09-12T01:04:50;19.40;99.90
14006;DHT22;7078;51.542;7.314;2023-09-12T01:07:16;19.40;99.90
14006;DHT22;7078;51.542;7.314;2023-09-12T01:09:42;19.40;99.90
14006;DHT22;7078;51.542;7.314;2023-09-12T01:12:08;19.50;99.90
14006;DHT22;7078;51.542;7.314;2023-09-12T01:14:34;19.40;99.90
14006;DHT22;7078;51.542;7.314;2023-09-12T01:17:00;19.40;99.90
14006;DHT22;7078;51.542;7.314;2023-09-12T01:19:27;19.40;99.90
14006;DHT22;7078;51.542;7.314;2023-09-12T01:27:41;19.50;99.90
14006;DHT22;7078;51.542;7.314;2023-09-12T01:30:09;19.50;99.90
14006;DHT22;7078;51.542;7.314;2023-09-12T01:32:36;19.50;99.90
14006;DHT22;7078;51.542;7.314;2023-09-12T01:35:03;19.60;99.90
14006;DHT22;7078;51.542;7.314;2023-09-12T01:37:31;19.50;99.90
14006;DHT22;7078;51.542;7.314;2023-09-12T01:39:58;19.50;99.90
14006;DHT22;7078;51.542;7.314;2023-09-12T01:42:24;19.50;99.90
14006;DHT22;7078;51.542;7.314;2023-09-12T01:44:55;19.50;99.90
14006;DHT22;7078;51.542;7.314;2023-09-12T01:47:22;19.50;99.90
14006;DHT22;7078;51.542;7.314;2023-09-12T01:49:51;19.50;99.90
14006;DHT22;7078;51.542;7.314;2023-09-12T01:52:18;19.60;99.90
14006;DHT22;7078;51.542;7.314;2023-09-12T01:54:45;19.50;99.90
14006;DHT22;7078;51.542;7.314;2023-09-12T01:57:12;19.60;99.90
14006;DHT22;7078;51.542;7.314;2023-09-12T01:59:38;19.50;99.90
14006;DHT22;7078;51.542;7.314;2023-09-12T02:02:04;19.60;99.90
14006;DHT22;7078;51.542;7.314;2023-09-12T02:04:30;19.60;99.90
14006;DHT22;7078;51.542;7.314;2023-09-12T02:06:55;19.60;99.90
14006;DHT22;7078;51.542;7.314;2023-09-12T02:09:21;19.60;99.90
14006;DHT22;7078;51.542;7.314;2023-09-12T02:11:48;19.50;99.90
14006;DHT22;7078;51.542;7.314;2023-09-12T02:14:13;19.50;99.90
14006;DHT22;7078;51.542;7.314;2023-09-12T02:16:39;19.50;99.90
14006;DHT22;7078;51.542;7.314;2023-09-12T02:19:05;19.50;99.90
14006;DHT22;7078;51.542;7.314;2023-09-12T02:21:31;19.50;99.90
14006;DHT22;7078;51.542;7.314;2023-09-12T02:23:56;19.50;99.90
14006;DHT22;7078;51.542;7.314;2023-09-12T02:26:22;19.50;99.90
14006;DHT22;7078;51.542;7.314;2023-09-12T02:28:47;19.20;99.90
14006;DHT22;7078;51.542;7.314;2023-09-12T02:31:13;19.30;99.90
14006;DHT22;7078;51.542;7.314;2023-09-12T02:33:39;19.50;99.90
14006;DHT22;7078;51.542;7.314;2023-09-12T02:36:05;19.40;99.90
14006;DHT22;7078;51.542;7.314;2023-09-12T02:38:31;19.50;99.90
14006;DHT22;7078;51.542;7.314;2023-09-12T02:40:57;19.50;99.90
14006;DHT22;7078;51.542;7.314;2023-09-12T02:43:23;19.50;99.90
14006;DHT22;7078;51.542;7.314;2023-09-12T02:45:49;19.50;99.90
14006;DHT22;7078;51.542;7.314;2023-09-12T02:48:14;19.50;99.90
14006;DHT22;7078;51.542;7.314;2023-09-12T02:50:40;19.60;99.90
14006;DHT22;7078;51.542;7.314;2023-09-12T02:53:05;19.70;99.90
14006;DHT22;7078;51.542;7.314;2023-09-12T02:55:32;19.70;99.90
14006;DHT22;7078;51.542;7.314;2023-09-12T02:57:57;19.60;99.90
14006;DHT22;7078;51.542;7.314;2023-09-12T03:00:23;19.60;99.90
14006;DHT22;7078;51.542;7.314;2023-09-12T03:02:48;19.60;99.90
14006;DHT22;7078;51.542;7.314;2023-09-12T03:05:14;19.50;99.90
14006;DHT22;7078;51.542;7.314;2023-09-12T03:07:39;19.50;99.90
14006;DHT22;7078;51.542;7.314;2023-09-12T03:10:05;19.60;99.90
14006;DHT22;7078;51.542;7.314;2023-09-12T03:12:31;19.60;99.90
14006;DHT22;7078;51.542;7.314;2023-09-12T03:14:57;19.60;99.90
14006;DHT22;7078;51.542;7.314;2023-09-12T03:17:22;19.60;99.90
14006;DHT22;7078;51.542;7.314;2023-09-12T03:19:48;19.60;99.90
14006;DHT22;7078;51.542;7.314;2023-09-12T03:22:13;19.60;99.90
14006;DHT22;7078;51.542;7.314;2023-09-12T03:24:39;19.70;99.90
14006;DHT22;7078;51.542;7.314;2023-09-12T03:27:04;19.60;99.90
14006;DHT22;7078;51.542;7.314;2023-09-12T03:29:30;19.60;99.90
14006;DHT22;7078;51.542;7.314;2023-09-12T03:31:56;19.60;99.90
14006;DHT22;7078;51.542;7.314;2023-09-12T03:34:21;19.50;99.90
14006;DHT22;7078;51.542;7.314;2023-09-12T03:36:47;19.60;99.90
14006;DHT22;7078;51.542;7.314;2023-09-12T03:39:12;19.60;99.90
14006;DHT22;7078;51.542;7.314;2023-09-12T03:41:39;19.60;99.90
14006;DHT22;7078;51.542;7.314;2023-09-12T03:44:05;19.60;99.90
14006;DHT22;7078;51.542;7.314;2023-09-12T03:46:30;19.60;99.90
14006;DHT22;7078;51.542;7.314;2023-09-12T03:48:56;19.40;99.90
14006;DHT22;7078;51.542;7.314;2023-09-12T03:51:21;19.60;99.90
14006;DHT22;7078;51.542;7.314;2023-09-12T03:53:47;19.60;99.90
14006;DHT22;7078;51.542;7.314;2023-09-12T03:56:15;19.60;99.90
14006;DHT22;7078;51.542;7.314;2023-09-12T03:58:41;19.50;99.90
14006;DHT22;7078;51.542;7.314;2023-09-12T04:01:07;19.70;99.90
14006;DHT22;7078;51.542;7.314;2023-09-12T04:03:32;19.50;99.90
14006;DHT22;7078;51.542;7.314;2023-09-12T04:05:58;19.40;99.90
14006;DHT22;7078;51.542;7.314;2023-09-12T04:08:23;19.30;99.90
14006;DHT22;7078;51.542;7.314;2023-09-12T04:10:49;19.20;99.90
14006;DHT22;7078;51.542;7.314;2023-09-12T04:13:14;19.00;99.90
14006;DHT22;7078;51.542;7.314;2023-09-12T04:15:40;19.10;99.90
14006;DHT22;7078;51.542;7.314;2023-09-12T04:18:06;19.20;99.90
14006;DHT22;7078;51.542;7.314;2023-09-12T04:20:32;18.90;99.90
14006;DHT22;7078;51.542;7.314;2023-09-12T04:23:00;18.80;99.90
14006;DHT22;7078;51.542;7.314;2023-09-12T04:25:25;18.90;99.90
14006;DHT22;7078;51.542;7.314;2023-09-12T04:27:52;19.00;99.90
14006;DHT22;7078;51.542;7.314;2023-09-12T04:30:17;18.90;99.90
14006;DHT22;7078;51.542;7.314;2023-09-12T04:32:43;18.90;99.90
14006;DHT22;7078;51.542;7.314;2023-09-12T04:35:08;18.80;99.90
14006;DHT22;7078;51.542;7.314;2023-09-12T04:37:34;18.90;99.90
14006;DHT22;7078;51.542;7.314;2023-09-12T04:40:00;18.80;99.90
14006;DHT22;7078;51.542;7.314;2023-09-12T04:42:25;18.80;99.90
14006;DHT22;7078;51.542;7.314;2023-09-12T04:44:51;18.70;99.90
14006;DHT22;7078;51.542;7.314;2023-09-12T04:47:17;18.80;99.90
14006;DHT22;7078;51.542;7.314;2023-09-12T04:49:43;19.00;99.90
14006;DHT22;7078;51.542;7.314;2023-09-12T04:52:09;18.80;99.90
14006;DHT22;7078;51.542;7.314;2023-09-12T04:54:35;18.80;99.90
14006;DHT22;7078;51.542;7.314;2023-09-12T04:57:01;18.80;99.90
14006;DHT22;7078;51.542;7.314;2023-09-12T04:59:27;18.80;99.90
14006;DHT22;7078;51.542;7.314;2023-09-12T05:01:53;19.00;99.90
14006;DHT22;7078;51.542;7.314;2023-09-12T05:04:18;18.90;99.90
14006;DHT22;7078;51.542;7.314;2023-09-12T05:06:44;18.90;99.90
14006;DHT22;7078;51.542;7.314;2023-09-12T05:09:10;18.90;99.90
14006;DHT22;7078;51.542;7.314;2023-09-12T05:11:36;18.90;99.90
14006;DHT22;7078;51.542;7.314;2023-09-12T05:14:02;18.90;99.90
14006;DHT22;7078;51.542;7.314;2023-09-12T05:16:30;18.90;99.90
14006;DHT22;7078;51.542;7.314;2023-09-12T05:18:55;18.90;99.90
14006;DHT22;7078;51.542;7.314;2023-09-12T05:21:21;18.90;99.90
14006;DHT22;7078;51.542;7.314;2023-09-12T05:23:47;19.00;99.90
14006;DHT22;7078;51.542;7.314;2023-09-12T05:26:12;19.00;99.90
14006;DHT22;7078;51.542;7.314;2023-09-12T05:28:38;19.00;99.90
14006;DHT22;7078;51.542;7.314;2023-09-12T05:31:04;19.00;99.90
14006;DHT22;7078;51.542;7.314;2023-09-12T05:33:29;19.10;99.90
14006;DHT22;7078;51.542;7.314;2023-09-12T05:35:55;19.10;99.90
14006;DHT22;7078;51.542;7.314;2023-09-12T05:38:21;19.30;99.90
14006;DHT22;7078;51.542;7.314;2023-09-12T05:40:46;19.20;99.90
14006;DHT22;7078;51.542;7.314;2023-09-12T05:43:16;19.20;99.90
14006;DHT22;7078;51.542;7.314;2023-09-12T05:45:42;19.30;99.90
14006;DHT22;7078;51.542;7.314;2023-09-12T05:48:07;19.10;99.90
14006;DHT22;7078;51.542;7.314;2023-09-12T05:50:36;19.30;99.90
14006;DHT22;7078;51.542;7.314;2023-09-12T05:53:01;19.30;99.90
14006;DHT22;7078;51.542;7.314;2023-09-12T05:55:27;19.30;99.90
14006;DHT22;7078;51.542;7.314;2023-09-12T05:57:53;19.30;99.90
14006;DHT22;7078;51.542;7.314;2023-09-12T06:00:18;19.40;99.90
14006;DHT22;7078;51.542;7.314;2023-09-12T06:02:45;19.20;99.90
14006;DHT22;7078;51.542;7.314;2023-09-12T06:05:11;19.10;99.90
14006;DHT22;7078;51.542;7.314;2023-09-12T06:07:37;19.10;99.90
14006;DHT22;7078;51.542;7.314;2023-09-12T06:10:04;19.20;99.90
14006;DHT22;7078;51.542;7.314;2023-09-12T06:12:30;19.10;99.90
14006;DHT22;7078;51.542;7.314;2023-09-12T06:14:58;19.10;99.90
14006;DHT22;7078;51.542;7.314;2023-09-12T06:17:24;19.10;99.90
14006;DHT22;7078;51.542;7.314;2023-09-12T06:19:49;19.20;99.90
14006;DHT22;7078;51.542;7.314;2023-09-12T06:22:16;19.30;99.90
14006;DHT22;7078;51.542;7.314;2023-09-12T06:24:42;19.20;99.90
14006;DHT22;7078;51.542;7.314;2023-09-12T06:27:08;19.10;99.90
14006;DHT22;7078;51.542;7.314;2023-09-12T06:29:33;19.50;99.90
14006;DHT22;7078;51.542;7.314;2023-09-12T06:31:59;19.50;99.90
14006;DHT22;7078;51.542;7.314;2023-09-12T06:34:25;19.40;99.90
14006;DHT22;7078;51.542;7.314;2023-09-12T06:36:50;19.40;99.90
14006;DHT22;7078;51.542;7.314;2023-09-12T06:39:16;19.50;99.90
14006;DHT22;7078;51.542;7.314;2023-09-12T06:41:41;19.60;99.90
14006;DHT22;7078;51.542;7.314;2023-09-12T06:44:07;19.70;99.90
14006;DHT22;7078;51.542;7.314;2023-09-12T06:46:32;19.80;99.90
14006;DHT22;7078;51.542;7.314;2023-09-12T06:49:02;19.70;99.90
14006;DHT22;7078;51.542;7.314;2023-09-12T06:51:28;19.80;99.90
14006;DHT22;7078;51.542;7.314;2023-09-12T06:53:53;19.70;99.90
14006;DHT22;7078;51.542;7.314;2023-09-12T06:56:19;19.50;99.90
14006;DHT22;7078;51.542;7.314;2023-09-12T06:58:44;19.30;99.90
14006;DHT22;7078;51.542;7.314;2023-09-12T07:01:10;19.40;99.90
14006;DHT22;7078;51.542;7.314;2023-09-12T07:03:36;19.30;99.90
14006;DHT22;7078;51.542;7.314;2023-09-12T07:06:02;19.10;99.90
14006;DHT22;7078;51.542;7.314;2023-09-12T07:08:30;19.10;99.90
14006;DHT22;7078;51.542;7.314;2023-09-12T07:10:55;19.10;99.90
14006;DHT22;7078;51.542;7.314;2023-09-12T07:13:23;18.90;99.90
14006;DHT22;7078;51.542;7.314;2023-09-12T07:15:50;18.80;99.90
14006;DHT22;7078;51.542;7.314;2023-09-12T07:18:15;18.70;99.90
14006;DHT22;7078;51.542;7.314;2023-09-12T07:20:41;18.60;99.90
14006;DHT22;7078;51.542;7.314;2023-09-12T07:23:07;18.60;99.90
14006;DHT22;7078;51.542;7.314;2023-09-12T07:25:39;18.50;99.90
14006;DHT22;7078;51.542;7.314;2023-09-12T07:28:06;18.40;99.90
14006;DHT22;7078;51.542;7.314;2023-09-12T07:30:32;18.40;99.90
14006;DHT22;7078;51.542;7.314;2023-09-12T07:32:57;18.40;99.90
14006;DHT22;7078;51.542;7.314;2023-09-12T07:35:23;18.30;99.90
14006;DHT22;7078;51.542;7.314;2023-09-12T07:37:50;18.40;99.90
14006;DHT22;7078;51.542;7.314;2023-09-12T07:40:15;18.30;99.90
14006;DHT22;7078;51.542;7.314;2023-09-12T07:42:41;18.30;99.90
14006;DHT22;7078;51.542;7.314;2023-09-12T07:45:07;18.30;99.90
14006;DHT22;7078;51.542;7.314;2023-09-12T07:47:33;18.30;99.90
14006;DHT22;7078;51.542;7.314;2023-09-12T07:49:59;18.30;99.90
14006;DHT22;7078;51.542;7.314;2023-09-12T07:52:26;18.40;99.90
14006;DHT22;7078;51.542;7.314;2023-09-12T07:54:52;18.40;99.90
14006;DHT22;7078;51.542;7.314;2023-09-12T07:57:22;18.40;99.90
14006;DHT22;7078;51.542;7.314;2023-09-12T07:59:48;18.40;99.90
14006;DHT22;7078;51.542;7.314;2023-09-12T08:02:14;18.50;99.90
14006;DHT22;7078;51.542;7.314;2023-09-12T08:04:39;18.60;99.90
14006;DHT22;7078;51.542;7.314;2023-09-12T08:07:05;18.90;99.90
14006;DHT22;7078;51.542;7.314;2023-09-12T08:09:50;19.00;99.90
14006;DHT22;7078;51.542;7.314;2023-09-12T08:12:17;19.10;99.90
14006;DHT22;7078;51.542;7.314;2023-09-12T08:14:43;19.30;99.90
14006;DHT22;7078;51.542;7.314;2023-09-12T08:17:09;19.40;99.90
14006;DHT22;7078;51.542;7.314;2023-09-12T08:19:34;19.60;99.90
14006;DHT22;7078;51.542;7.314;2023-09-12T08:22:00;19.70;99.90
14006;DHT22;7078;51.542;7.314;2023-09-12T08:24:25;19.90;99.90
14006;DHT22;7078;51.542;7.314;2023-09-12T08:26:51;20.00;99.90
14006;DHT22;7078;51.542;7.314;2023-09-12T08:29:16;20.10;99.90
14006;DHT22;7078;51.542;7.314;2023-09-12T08:31:42;20.20;99.90
14006;DHT22;7078;51.542;7.314;2023-09-12T08:34:07;20.20;99.90
14006;DHT22;7078;51.542;7.314;2023-09-12T08:36:33;20.20;99.90
14006;DHT22;7078;51.542;7.314;2023-09-12T08:39:01;20.20;99.90
14006;DHT22;7078;51.542;7.314;2023-09-12T08:41:26;20.10;99.90
14006;DHT22;7078;51.542;7.314;2023-09-12T08:43:53;20.00;99.90
14006;DHT22;7078;51.542;7.314;2023-09-12T08:46:20;20.00;99.90
14006;DHT22;7078;51.542;7.314;2023-09-12T08:48:47;20.00;99.90
14006;DHT22;7078;51.542;7.314;2023-09-12T08:51:14;20.10;99.90
14006;DHT22;7078;51.542;7.314;2023-09-12T08:53:40;20.10;99.90
14006;DHT22;7078;51.542;7.314;2023-09-12T08:56:06;20.10;99.90
14006;DHT22;7078;51.542;7.314;2023-09-12T08:58:32;20.20;99.90
14006;DHT22;7078;51.542;7.314;2023-09-12T09:01:00;20.20;99.90
14006;DHT22;7078;51.542;7.314;2023-09-12T09:03:26;20.30;99.90
14006;DHT22;7078;51.542;7.314;2023-09-12T09:05:54;20.30;99.90
14006;DHT22;7078;51.542;7.314;2023-09-12T09:08:21;20.30;99.90
14006;DHT22;7078;51.542;7.314;2023-09-12T09:11:00;20.40;99.90
14006;DHT22;7078;51.542;7.314;2023-09-12T09:13:34;20.40;99.90
14006;DHT22;7078;51.542;7.314;2023-09-12T09:16:15;20.50;99.90
14006;DHT22;7078;51.542;7.314;2023-09-12T09:18:55;20.70;99.90
14006;DHT22;7078;51.542;7.314;2023-09-12T09:21:29;20.90;99.90
14006;DHT22;7078;51.542;7.314;2023-09-12T09:24:04;20.90;99.90
14006;DHT22;7078;51.542;7.314;2023-09-12T09:26:48;21.10;99.90
14006;DHT22;7078;51.542;7.314;2023-09-12T09:29:18;21.30;99.90
14006;DHT22;7078;51.542;7.314;2023-09-12T09:31:46;21.40;99.90
14006;DHT22;7078;51.542;7.314;2023-09-12T09:34:16;21.40;99.90
14006;DHT22;7078;51.542;7.314;2023-09-12T09:36:47;21.50;99.90
14006;DHT22;7078;51.542;7.314;2023-09-12T09:39:14;21.60;99.90
14006;DHT22;7078;51.542;7.314;2023-09-12T09:41:41;21.80;99.90
14006;DHT22;7078;51.542;7.314;2023-09-12T09:44:10;22.00;99.90
14006;DHT22;7078;51.542;7.314;2023-09-12T09:46:37;22.00;99.90
14006;DHT22;7078;51.542;7.314;2023-09-12T09:49:02;22.20;99.90
14006;DHT22;7078;51.542;7.314;2023-09-12T09:51:30;22.20;99.90
14006;DHT22;7078;51.542;7.314;2023-09-12T09:53:56;22.30;99.90
14006;DHT22;7078;51.542;7.314;2023-09-12T09:56:24;22.50;99.90
14006;DHT22;7078;51.542;7.314;2023-09-12T09:58:52;22.60;99.90
14006;DHT22;7078;51.542;7.314;2023-09-12T10:01:27;22.60;99.90
14006;DHT22;7078;51.542;7.314;2023-09-12T10:03:58;22.80;99.90
14006;DHT22;7078;51.542;7.314;2023-09-12T10:06:24;23.00;99.90
14006;DHT22;7078;51.542;7.314;2023-09-12T10:08:52;22.90;99.90
14006;DHT22;7078;51.542;7.314;2023-09-12T10:11:20;22.90;99.90
14006;DHT22;7078;51.542;7.314;2023-09-12T10:13:53;22.90;99.90
14006;DHT22;7078;51.542;7.314;2023-09-12T10:16:23;23.20;99.90
14006;DHT22;7078;51.542;7.314;2023-09-12T10:19:13;23.20;99.90
14006;DHT22;7078;51.542;7.314;2023-09-12T10:24:30;23.20;99.90
14006;DHT22;7078;51.542;7.314;2023-09-12T10:26:57;23.40;99.90
14006;DHT22;7078;51.542;7.314;2023-09-12T10:29:23;23.30;99.90
14006;DHT22;7078;51.542;7.314;2023-09-12T10:31:48;23.40;99.90
14006;DHT22;7078;51.542;7.314;2023-09-12T10:34:15;23.40;99.90
14006;DHT22;7078;51.542;7.314;2023-09-12T10:36:42;23.50;99.90
14006;DHT22;7078;51.542;7.314;2023-09-12T10:39:10;23.60;99.90
14006;DHT22;7078;51.542;7.314;2023-09-12T10:41:38;23.70;99.90
14006;DHT22;7078;51.542;7.314;2023-09-12T10:44:16;23.80;99.90
14006;DHT22;7078;51.542;7.314;2023-09-12T10:46:43;24.00;99.90
14006;DHT22;7078;51.542;7.314;2023-09-12T10:49:13;24.10;99.90
14006;DHT22;7078;51.542;7.314;2023-09-12T10:51:44;24.40;99.90
14006;DHT22;7078;51.542;7.314;2023-09-12T10:54:14;24.60;99.90
14006;DHT22;7078;51.542;7.314;2023-09-12T10:56:39;24.60;99.90
14006;DHT22;7078;51.542;7.314;2023-09-12T11:01:35;24.70;99.90
14006;DHT22;7078;51.542;7.314;2023-09-12T11:06:53;24.70;99.90
14006;DHT22;7078;51.542;7.314;2023-09-12T11:09:28;24.80;99.90
14006;DHT22;7078;51.542;7.314;2023-09-12T11:11:58;24.50;99.90
14006;DHT22;7078;51.542;7.314;2023-09-12T11:14:24;24.70;99.90
14006;DHT22;7078;51.542;7.314;2023-09-12T11:19:46;24.80;99.90
14006;DHT22;7078;51.542;7.314;2023-09-12T11:22:41;24.90;99.90
14006;DHT22;7078;51.542;7.314;2023-09-12T11:25:18;25.10;99.90
14006;DHT22;7078;51.542;7.314;2023-09-12T11:30:19;25.00;99.90
14006;DHT22;7078;51.542;7.314;2023-09-12T11:32:50;25.00;99.90
14006;DHT22;7078;51.542;7.314;2023-09-12T11:35:17;25.00;99.90
14006;DHT22;7078;51.542;7.314;2023-09-12T11:37:51;24.90;99.90
14006;DHT22;7078;51.542;7.314;2023-09-12T11:40:20;24.80;99.90
14006;DHT22;7078;51.542;7.314;2023-09-12T11:42:47;24.70;99.90
14006;DHT22;7078;51.542;7.314;2023-09-12T11:45:18;24.90;99.90
14006;DHT22;7078;51.542;7.314;2023-09-12T11:47:45;24.90;99.90
14006;DHT22;7078;51.542;7.314;2023-09-12T11:50:39;25.10;99.90
14006;DHT22;7078;51.542;7.314;2023-09-12T11:53:11;25.00;99.90
14006;DHT22;7078;51.542;7.314;2023-09-12T11:58:07;24.90;99.90
14006;DHT22;7078;51.542;7.314;2023-09-12T12:00:33;24.90;99.90
14006;DHT22;7078;51.542;7.314;2023-09-12T12:02:58;24.80;99.90
14006;DHT22;7078;51.542;7.314;2023-09-12T12:05:24;24.70;99.90
14006;DHT22;7078;51.542;7.314;2023-09-12T12:07:50;24.80;99.90
14006;DHT22;7078;51.542;7.314;2023-09-12T12:10:18;25.00;99.90
14006;DHT22;7078;51.542;7.314;2023-09-12T12:12:44;25.30;99.90
14006;DHT22;7078;51.542;7.314;2023-09-12T12:15:12;25.30;99.90
14006;DHT22;7078;51.542;7.314;2023-09-12T12:17:37;25.40;99.90
14006;DHT22;7078;51.542;7.314;2023-09-12T12:20:10;25.60;99.90
14006;DHT22;7078;51.542;7.314;2023-09-12T12:22:37;25.50;99.90
14006;DHT22;7078;51.542;7.314;2023-09-12T12:25:08;25.50;99.90
14006;DHT22;7078;51.542;7.314;2023-09-12T12:27:36;25.50;99.90
14006;DHT22;7078;51.542;7.314;2023-09-12T12:30:02;25.60;99.90
14006;DHT22;7078;51.542;7.314;2023-09-12T12:32:28;25.60;99.90
14006;DHT22;7078;51.542;7.314;2023-09-12T12:34:53;25.60;99.90
14006;DHT22;7078;51.542;7.314;2023-09-12T12:37:19;25.50;99.90
14006;DHT22;7078;51.542;7.314;2023-09-12T12:39:44;25.50;99.90
14006;DHT22;7078;51.542;7.314;2023-09-12T12:42:10;25.60;99.90
14006;DHT22;7078;51.542;7.314;2023-09-12T12:44:36;25.60;99.90
14006;DHT22;7078;51.542;7.314;2023-09-12T12:47:06;25.60;99.90
14006;DHT22;7078;51.542;7.314;2023-09-12T12:49:39;25.70;99.90
14006;DHT22;7078;51.542;7.314;2023-09-12T12:52:05;25.80;99.90
14006;DHT22;7078;51.542;7.314;2023-09-12T12:54:32;25.90;99.90
14006;DHT22;7078;51.542;7.314;2023-09-12T12:56:59;26.00;99.90
14006;DHT22;7078;51.542;7.314;2023-09-12T12:59:25;25.90;99.90
14006;DHT22;7078;51.542;7.314;2023-09-12T13:01:50;25.90;99.90
14006;DHT22;7078;51.542;7.314;2023-09-12T13:04:16;25.80;99.90
14006;DHT22;7078;51.542;7.314;2023-09-12T13:06:42;25.70;99.90
14006;DHT22;7078;51.542;7.314;2023-09-12T13:09:09;25.70;99.90
14006;DHT22;7078;51.542;7.314;2023-09-12T13:11:36;25.70;99.90
14006;DHT22;7078;51.542;7.314;2023-09-12T13:14:03;25.70;99.90
14006;DHT22;7078;51.542;7.314;2023-09-12T13:16:34;25.70;99.90
14006;DHT22;7078;51.542;7.314;2023-09-12T13:19:00;25.90;99.90
14006;DHT22;7078;51.542;7.314;2023-09-12T13:21:25;25.90;99.90
14006;DHT22;7078;51.542;7.314;2023-09-12T13:23:51;26.10;99.90
14006;DHT22;7078;51.542;7.314;2023-09-12T13:26:16;26.20;99.90
14006;DHT22;7078;51.542;7.314;2023-09-12T13:28:42;26.40;99.90
14006;DHT22;7078;51.542;7.314;2023-09-12T13:31:08;26.50;99.90
14006;DHT22;7078;51.542;7.314;2023-09-12T13:33:33;26.50;99.90
14006;DHT22;7078;51.542;7.314;2023-09-12T13:35:59;26.50;99.90
14006;DHT22;7078;51.542;7.314;2023-09-12T13:38:25;26.30;99.90
14006;DHT22;7078;51.542;7.314;2023-09-12T13:40:50;26.10;99.90
14006;DHT22;7078;51.542;7.314;2023-09-12T13:43:16;25.90;99.90
14006;DHT22;7078;51.542;7.314;2023-09-12T13:45:41;25.70;99.90
14006;DHT22;7078;51.542;7.314;2023-09-12T13:48:07;25.50;99.90
14006;DHT22;7078;51.542;7.314;2023-09-12T13:50:33;25.60;99.90
14006;DHT22;7078;51.542;7.314;2023-09-12T13:53:00;25.70;99.90
14006;DHT22;7078;51.542;7.314;2023-09-12T13:55:29;25.70;99.90
14006;DHT22;7078;51.542;7.314;2023-09-12T13:57:54;25.90;99.90
14006;DHT22;7078;51.542;7.314;2023-09-12T14:00:20;26.00;99.90
14006;DHT22;7078;51.542;7.314;2023-09-12T14:02:46;26.00;99.90
14006;DHT22;7078;51.542;7.314;2023-09-12T14:05:12;26.10;99.90
14006;DHT22;7078;51.542;7.314;2023-09-12T14:07:38;26.20;99.90
14006;DHT22;7078;51.542;7.314;2023-09-12T14:10:08;26.30;99.90
14006;DHT22;7078;51.542;7.314;2023-09-12T14:12:33;26.10;99.90
14006;DHT22;7078;51.542;7.314;2023-09-12T14:15:00;26.10;99.90
14006;DHT22;7078;51.542;7.314;2023-09-12T14:17:25;25.90;99.90
14006;DHT22;7078;51.542;7.314;2023-09-12T14:19:51;25.70;99.90
14006;DHT22;7078;51.542;7.314;2023-09-12T14:22:16;25.60;99.90
14006;DHT22;7078;51.542;7.314;2023-09-12T14:24:42;25.70;99.90
14006;DHT22;7078;51.542;7.314;2023-09-12T14:27:07;25.70;99.90
14006;DHT22;7078;51.542;7.314;2023-09-12T14:29:33;25.80;99.90
14006;DHT22;7078;51.542;7.314;2023-09-12T14:31:58;25.90;99.90
14006;DHT22;7078;51.542;7.314;2023-09-12T14:34:25;26.00;99.90
14006;DHT22;7078;51.542;7.314;2023-09-12T14:36:54;26.20;99.90
14006;DHT22;7078;51.542;7.314;2023-09-12T14:39:21;26.10;99.90
14006;DHT22;7078;51.542;7.314;2023-09-12T14:41:47;26.30;99.90
14006;DHT22;7078;51.542;7.314;2023-09-12T14:44:17;26.20;99.90
14006;DHT22;7078;51.542;7.314;2023-09-12T14:46:43;26.20;99.90
14006;DHT22;7078;51.542;7.314;2023-09-12T14:49:09;26.10;99.90
14006;DHT22;7078;51.542;7.314;2023-09-12T14:51:36;26.10;99.90
14006;DHT22;7078;51.542;7.314;2023-09-12T14:54:03;26.10;99.90
14006;DHT22;7078;51.542;7.314;2023-09-12T14:56:29;26.10;99.90
14006;DHT22;7078;51.542;7.314;2023-09-12T14:58:55;26.10;99.90
14006;DHT22;7078;51.542;7.314;2023-09-12T15:01:20;26.10;99.90
14006;DHT22;7078;51.542;7.314;2023-09-12T15:03:46;26.10;99.90
14006;DHT22;7078;51.542;7.314;2023-09-12T15:06:12;26.00;99.90
14006;DHT22;7078;51.542;7.314;2023-09-12T15:08:37;25.90;99.90
14006;DHT22;7078;51.542;7.314;2023-09-12T15:11:03;25.80;99.90
14006;DHT22;7078;51.542;7.314;2023-09-12T15:13:29;25.70;99.90
14006;DHT22;7078;51.542;7.314;2023-09-12T15:15:55;25.70;99.90
14006;DHT22;7078;51.542;7.314;2023-09-12T15:18:20;25.50;99.90
14006;DHT22;7078;51.542;7.314;2023-09-12T15:20:46;25.40;99.90
14006;DHT22;7078;51.542;7.314;2023-09-12T15:23:11;25.40;99.90
14006;DHT22;7078;51.542;7.314;2023-09-12T15:25:37;25.30;99.90
14006;DHT22;7078;51.542;7.314;2023-09-12T15:28:03;25.30;99.90
14006;DHT22;7078;51.542;7.314;2023-09-12T15:30:29;25.30;99.90
14006;DHT22;7078;51.542;7.314;2023-09-12T15:32:54;25.20;99.90
14006;DHT22;7078;51.542;7.314;2023-09-12T15:35:20;25.30;99.90
14006;DHT22;7078;51.542;7.314;2023-09-12T15:37:45;25.20;99.90
14006;DHT22;7078;51.542;7.314;2023-09-12T15:40:11;25.20;99.90
14006;DHT22;7078;51.542;7.314;2023-09-12T15:42:37;25.20;99.90
14006;DHT22;7078;51.542;7.314;2023-09-12T15:45:03;25.20;99.90
14006;DHT22;7078;51.542;7.314;2023-09-12T15:47:30;25.40;99.90
14006;DHT22;7078;51.542;7.314;2023-09-12T15:49:56;25.50;99.90
14006;DHT22;7078;51.542;7.314;2023-09-12T15:52:22;25.70;99.90
14006;DHT22;7078;51.542;7.314;2023-09-12T15:54:47;25.90;99.90
14006;DHT22;7078;51.542;7.314;2023-09-12T15:57:14;26.00;99.90
14006;DHT22;7078;51.542;7.314;2023-09-12T15:59:40;26.10;99.90
14006;DHT22;7078;51.542;7.314;2023-09-12T16:02:05;26.00;99.90
14006;DHT22;7078;51.542;7.314;2023-09-12T16:04:31;26.00;99.90